Time;durP1;ratioP1;P1;durP2;ratioP2;P2;SDS_P1;SDS_P2;PMS_P1;PMS_P2;Temp;Humidity;BMP_temperature;BMP_pressure;BME280_temperature;BME280_humidity;BME280_pressure;Samples;Min_cycle;Max_cycle;Signal;HPM_P1;HPM_P2
2022/03/01 00:00:20;;;;;;;15.68;11.15;;;;;;;;;;5067303;28;20165;-87
2022/03/01 00:02:55;;;;;;;16.13;10.85;;;;;;;;;;5067508;28;20130;-87
2022/03/01 00:05:21;;;;;;;17.80;11.52;;;;;;;;;;5081375;28;20260;-83
2022/03/01 00:07:48;;;;;;;17.25;11.02;;;;;;;;;;5091226;28;20035;-84
2022/03/01 00:10:17;;;;;;;14.57;10.80;;;;;;;;;;5062634;28;20045;-87
2022/03/01 00:12:48;;;;;;;15.10;10.80;;;;;;;;;;5062470;28;20111;-87
2022/03/01 00:15:14;;;;;;;16.08;11.32;;;;;;;;;;5064650;28;20089;-87
2022/03/01 00:17:40;;;;;;;15.00;10.82;;;;;;;;;;5056780;28;20036;-88
2022/03/01 00:20:06;;;;;;;18.42;11.50;;;;;;;;;;5080522;28;20033;-87
2022/03/01 00:22:33;;;;;;;15.10;11.18;;;;;;;;;;5047619;28;20071;-87
2022/03/01 00:24:59;;;;;;;16.95;11.45;;;;;;;;;;5069050;28;20099;-88
2022/03/01 00:27:26;;;;;;;18.08;12.02;;;;;;;;;;5068872;28;20040;-88
2022/03/01 00:29:52;;;;;;;14.85;11.15;;;;;;;;;;5084152;28;20708;-88
2022/03/01 00:32:21;;;;;;;16.17;10.38;;;;;;;;;;5067070;28;20051;-87
2022/03/01 00:34:47;;;;;;;19.25;11.73;;;;;;;;;;5068205;28;20036;-87
2022/03/01 00:37:13;;;;;;;17.25;11.68;;;;;;;;;;5083729;28;20579;-88
2022/03/01 00:39:39;;;;;;;18.85;11.50;;;;;;;;;;5085000;28;20040;-88
2022/03/01 00:42:05;;;;;;;15.95;11.85;;;;;;;;;;5084783;28;20036;-88
2022/03/01 00:44:32;;;;;;;18.83;12.95;;;;;;;;;;5085113;28;20043;-87
2022/03/01 00:47:01;;;;;;;16.95;11.48;;;;;;;;;;5068364;28;20107;-87
2022/03/01 00:49:32;;;;;;;18.20;12.02;;;;;;;;;;5084056;28;20502;-87
2022/03/01 00:51:58;;;;;;;20.35;12.30;;;;;;;;;;5083655;28;20040;-88
2022/03/01 00:54:25;;;;;;;15.10;10.80;;;;;;;;;;5068155;28;20048;-87
2022/03/01 00:56:51;;;;;;;20.40;12.02;;;;;;;;;;5102570;28;20036;-88
2022/03/01 00:59:17;;;;;;;18.67;11.40;;;;;;;;;;5066675;28;20510;-87
2022/03/01 01:01:44;;;;;;;17.15;12.20;;;;;;;;;;5066638;28;20127;-87
2022/03/01 01:04:12;;;;;;;16.85;12.20;;;;;;;;;;5083245;28;20086;-86
2022/03/01 01:06:39;;;;;;;17.75;11.63;;;;;;;;;;5066511;28;20047;-87
2022/03/01 01:09:05;;;;;;;17.77;12.18;;;;;;;;;;5066706;28;20044;-88
2022/03/01 01:11:31;;;;;;;17.23;11.77;;;;;;;;;;5067196;28;20064;-88
2022/03/01 01:13:57;;;;;;;17.50;11.80;;;;;;;;;;5084550;28;20067;-88
2022/03/01 01:16:23;;;;;;;16.50;11.55;;;;;;;;;;5067650;28;20058;-86
2022/03/01 01:18:49;;;;;;;16.75;11.95;;;;;;;;;;5068046;28;20076;-86
2022/03/01 01:21:16;;;;;;;16.98;11.25;;;;;;;;;;5084541;28;20039;-86
2022/03/01 01:23:42;;;;;;;16.85;11.85;;;;;;;;;;5066348;28;20545;-88
2022/03/01 01:26:08;;;;;;;16.50;11.73;;;;;;;;;;5082947;28;20081;-87
2022/03/01 01:28:34;;;;;;;16.35;11.20;;;;;;;;;;5081192;28;20040;-88
2022/03/01 01:31:01;;;;;;;16.70;11.35;;;;;;;;;;5080635;28;20427;-85
2022/03/01 01:33:27;;;;;;;17.20;11.68;;;;;;;;;;5081182;28;20130;-86
2022/03/01 01:35:53;;;;;;;15.68;11.32;;;;;;;;;;5080994;28;20379;-86
2022/03/01 01:38:19;;;;;;;17.33;11.90;;;;;;;;;;5064904;28;20103;-87
2022/03/01 01:40:45;;;;;;;20.95;12.27;;;;;;;;;;5066002;28;20063;-87
2022/03/01 01:43:14;;;;;;;18.83;11.25;;;;;;;;;;5067069;28;20044;-88
2022/03/01 01:45:40;;;;;;;18.90;12.05;;;;;;;;;;5084595;28;20047;-87
2022/03/01 01:48:13;;;;;;;19.00;11.93;;;;;;;;;;5084212;28;20032;-87
2022/03/01 01:50:39;;;;;;;17.88;12.10;;;;;;;;;;5067522;28;20039;-88
2022/03/01 01:53:06;;;;;;;18.25;12.32;;;;;;;;;;5091150;28;20111;-84
2022/03/01 01:55:32;;;;;;;18.00;11.93;;;;;;;;;;5083272;28;20115;-84
2022/03/01 01:58:04;;;;;;;17.63;11.13;;;;;;;;;;5096315;28;20417;-87
2022/03/01 02:00:31;;;;;;;18.17;12.23;;;;;;;;;;5067058;28;20071;-86
2022/03/01 02:02:58;;;;;;;20.10;12.07;;;;;;;;;;5072344;28;20063;-84
2022/03/01 02:05:24;;;;;;;17.73;11.93;;;;;;;;;;5082915;28;20232;-85
2022/03/01 02:07:51;;;;;;;19.88;12.65;;;;;;;;;;5083196;28;20032;-83
2022/03/01 02:10:20;;;;;;;21.23;12.93;;;;;;;;;;5079167;28;20040;-87
2022/03/01 02:12:46;;;;;;;17.75;11.93;;;;;;;;;;5066352;28;20089;-86
2022/03/01 02:15:17;;;;;;;19.50;12.85;;;;;;;;;;5066453;28;20055;-86
2022/03/01 02:17:46;;;;;;;18.08;12.48;;;;;;;;;;5085417;28;20044;-87
2022/03/01 02:20:14;;;;;;;17.40;11.88;;;;;;;;;;5070344;28;20047;-87
2022/03/01 02:22:42;;;;;;;18.10;12.65;;;;;;;;;;5047158;28;20151;-86
2022/03/01 02:25:12;;;;;;;19.40;12.85;;;;;;;;;;5047937;28;20044;-88
2022/03/01 02:27:47;;;;;;;18.02;12.65;;;;;;;;;;5066388;28;20113;-86
2022/03/01 02:30:13;;;;;;;17.13;11.60;;;;;;;;;;5040193;28;20032;-87
2022/03/01 02:32:41;;;;;;;18.70;12.27;;;;;;;;;;5068366;28;20464;-86
2022/03/01 02:35:24;;;;;;;18.88;12.35;;;;;;;;;;5069907;28;20056;-86
2022/03/01 02:37:56;;;;;;;17.23;12.10;;;;;;;;;;5085895;28;20075;-86
2022/03/01 02:40:30;;;;;;;19.83;12.00;;;;;;;;;;5069679;28;20040;-86
2022/03/01 02:43:00;;;;;;;18.33;11.95;;;;;;;;;;5085384;28;20097;-86
2022/03/01 02:45:31;;;;;;;18.33;12.10;;;;;;;;;;5090738;28;20083;-84
2022/03/01 02:48:03;;;;;;;19.48;12.10;;;;;;;;;;5086706;28;20020;-84
2022/03/01 02:50:30;;;;;;;17.25;11.57;;;;;;;;;;5103162;28;20157;-84
2022/03/01 02:52:56;;;;;;;17.00;11.85;;;;;;;;;;5097041;28;20044;-86
2022/03/01 02:55:25;;;;;;;18.38;12.52;;;;;;;;;;5103555;28;20047;-85
2022/03/01 02:58:00;;;;;;;20.70;12.80;;;;;;;;;;5070267;28;20063;-87
2022/03/01 03:00:27;;;;;;;20.17;12.10;;;;;;;;;;5067015;28;20063;-86
2022/03/01 03:02:59;;;;;;;20.67;12.75;;;;;;;;;;5067412;28;20459;-86
2022/03/01 03:05:25;;;;;;;19.88;12.43;;;;;;;;;;5068577;28;20152;-87
2022/03/01 03:07:54;;;;;;;15.77;11.15;;;;;;;;;;5068529;28;20040;-87
2022/03/01 03:10:25;;;;;;;19.10;12.55;;;;;;;;;;5066476;28;20280;-86
2022/03/01 03:12:51;;;;;;;18.05;11.48;;;;;;;;;;5066376;28;20052;-86
2022/03/01 03:15:27;;;;;;;18.50;12.20;;;;;;;;;;5067469;28;20062;-87
2022/03/01 03:18:03;;;;;;;18.73;12.52;;;;;;;;;;5082861;28;20055;-88
2022/03/01 03:20:50;;;;;;;20.25;12.43;;;;;;;;;;5069234;28;20044;-88
2022/03/01 03:23:28;;;;;;;18.20;12.32;;;;;;;;;;5055044;28;20051;-88
2022/03/01 03:26:08;;;;;;;19.85;12.25;;;;;;;;;;5069317;28;20036;-88
2022/03/01 03:28:53;;;;;;;19.45;12.20;;;;;;;;;;5084849;28;20063;-83
2022/03/01 03:31:23;;;;;;;18.80;12.25;;;;;;;;;;5085076;28;20498;-83
2022/03/01 03:33:52;;;;;;;20.02;12.27;;;;;;;;;;5070700;28;20040;-87
2022/03/01 03:36:34;;;;;;;22.00;14.15;;;;;;;;;;5087968;28;20036;-85
2022/03/01 03:39:26;;;;;;;21.58;12.95;;;;;;;;;;5068546;28;20040;-87
2022/03/01 03:41:55;;;;;;;16.88;11.88;;;;;;;;;;5066054;28;20056;-88
2022/03/01 03:44:27;;;;;;;21.65;13.13;;;;;;;;;;5085272;28;20044;-87
2022/03/01 03:47:28;;;;;;;20.25;12.93;;;;;;;;;;5085086;28;20040;-88
2022/03/01 03:50:03;;;;;;;21.60;13.82;;;;;;;;;;5068100;28;20055;-88
2022/03/01 03:52:44;;;;;;;20.70;12.85;;;;;;;;;;5083644;28;20037;-87
2022/03/01 03:55:44;;;;;;;;;;;;;;;;;;;;;
2022/03/01 03:58:30;;;;;;;21.00;13.57;;;;;;;;;;5082348;28;20048;-88
2022/03/01 04:01:14;;;;;;;21.80;13.63;;;;;;;;;;5085839;28;20040;-87
2022/03/01 04:03:43;;;;;;;22.27;13.48;;;;;;;;;;5084603;28;20058;-87
2022/03/01 04:06:22;;;;;;;19.52;12.63;;;;;;;;;;5067872;28;20094;-87
2022/03/01 04:08:56;;;;;;;21.90;14.32;;;;;;;;;;5068859;28;20040;-88
2022/03/01 04:12:08;;;;;;;21.00;13.37;;;;;;;;;;5068888;28;20063;-87
2022/03/01 04:14:50;;;;;;;20.27;13.93;;;;;;;;;;5080157;28;20298;-87
2022/03/01 04:17:27;;;;;;;20.40;13.63;;;;;;;;;;5066757;28;20036;-86
2022/03/01 04:20:03;;;;;;;23.58;14.20;;;;;;;;;;5068676;28;20392;-87
2022/03/01 04:22:35;;;;;;;20.90;13.45;;;;;;;;;;5084236;28;20101;-87
2022/03/01 04:25:14;;;;;;;20.52;13.98;;;;;;;;;;5067991;28;20043;-88
2022/03/01 04:27:40;;;;;;;21.55;13.18;;;;;;;;;;5067509;28;20036;-87
2022/03/01 04:30:16;;;;;;;21.73;13.57;;;;;;;;;;5085172;28;20044;-84
2022/03/01 04:32:50;;;;;;;20.90;12.95;;;;;;;;;;5067619;28;20029;-83
2022/03/01 04:35:33;;;;;;;21.27;13.65;;;;;;;;;;5068539;28;20063;-83
2022/03/01 04:38:05;;;;;;;20.73;13.95;;;;;;;;;;5046788;28;20048;-86
2022/03/01 04:40:34;;;;;;;22.17;13.75;;;;;;;;;;5046474;28;20057;-87
2022/03/01 04:43:30;;;;;;;23.02;14.77;;;;;;;;;;5048084;28;20095;-86
2022/03/01 04:46:41;;;;;;;18.95;12.90;;;;;;;;;;5049387;28;20070;-88
2022/03/01 04:49:45;;;;;;;20.83;12.88;;;;;;;;;;5044469;28;20045;-87
2022/03/01 04:52:21;;;;;;;24.05;13.73;;;;;;;;;;5015500;28;20139;-88
2022/03/01 04:55:00;;;;;;;19.48;12.60;;;;;;;;;;5058738;28;20040;-84
2022/03/01 04:57:33;;;;;;;20.63;13.95;;;;;;;;;;5067669;28;20056;-86
2022/03/01 05:00:20;;;;;;;19.67;13.98;;;;;;;;;;5045606;28;20037;-87
2022/03/01 05:03:15;;;;;;;19.50;12.80;;;;;;;;;;5048979;28;20052;-86
2022/03/01 05:06:01;;;;;;;19.42;12.95;;;;;;;;;;5068799;28;20047;-87
2022/03/01 05:08:44;;;;;;;21.73;13.57;;;;;;;;;;5069214;28;20098;-87
2022/03/01 05:11:30;;;;;;;20.60;14.32;;;;;;;;;;5063868;28;20069;-87
2022/03/01 05:14:05;;;;;;;23.33;14.63;;;;;;;;;;5062531;28;20520;-87
2022/03/01 05:16:40;;;;;;;20.98;13.95;;;;;;;;;;5067630;28;20044;-88
2022/03/01 05:19:10;;;;;;;20.10;12.77;;;;;;;;;;5067758;28;20067;-87
2022/03/01 05:21:45;;;;;;;22.88;13.68;;;;;;;;;;5066459;28;20079;-87
2022/03/01 05:24:12;;;;;;;21.20;13.85;;;;;;;;;;5068039;28;20054;-87
2022/03/01 05:26:38;;;;;;;20.33;13.10;;;;;;;;;;5084149;28;20040;-87
2022/03/01 05:29:16;;;;;;;18.80;13.25;;;;;;;;;;5051465;28;20037;-87
2022/03/01 05:31:48;;;;;;;20.02;13.25;;;;;;;;;;5072409;28;20107;-87
2022/03/01 05:34:17;;;;;;;19.70;13.07;;;;;;;;;;5068366;28;20401;-88
2022/03/01 05:36:44;;;;;;;20.20;14.40;;;;;;;;;;5068055;28;20052;-87
2022/03/01 05:39:15;;;;;;;19.02;13.70;;;;;;;;;;5066816;28;20107;-87
2022/03/01 05:41:42;;;;;;;20.20;13.63;;;;;;;;;;5083205;28;20044;-86
2022/03/01 05:44:08;;;;;;;21.77;14.25;;;;;;;;;;5070608;28;20045;-87
2022/03/01 05:46:45;;;;;;;22.83;14.82;;;;;;;;;;5048197;28;20045;-87
2022/03/01 05:49:12;;;;;;;22.08;14.85;;;;;;;;;;5064226;28;20040;-87
2022/03/01 05:51:41;;;;;;;24.42;14.93;;;;;;;;;;5044934;28;20123;-86
2022/03/01 05:54:07;;;;;;;25.25;15.25;;;;;;;;;;5061146;28;20135;-87
2022/03/01 05:56:33;;;;;;;23.33;14.80;;;;;;;;;;5044730;28;20450;-87
2022/03/01 05:58:59;;;;;;;21.13;14.48;;;;;;;;;;5061229;28;20047;-87
2022/03/01 06:01:25;;;;;;;19.95;13.52;;;;;;;;;;5042425;28;20169;-87
2022/03/01 06:03:51;;;;;;;23.63;15.25;;;;;;;;;;5055830;28;20043;-88
2022/03/01 06:06:18;;;;;;;24.48;15.30;;;;;;;;;;5065386;28;20035;-87
2022/03/01 06:08:44;;;;;;;24.33;15.90;;;;;;;;;;5082031;28;20040;-87
2022/03/01 06:11:10;;;;;;;21.65;14.93;;;;;;;;;;5065268;28;20498;-87
2022/03/01 06:13:37;;;;;;;21.83;14.80;;;;;;;;;;5064009;28;20039;-86
2022/03/01 06:16:04;;;;;;;24.80;14.93;;;;;;;;;;5072007;28;20043;-84
2022/03/01 06:18:30;;;;;;;27.92;16.38;;;;;;;;;;5081003;28;20064;-84
2022/03/01 06:20:56;;;;;;;26.65;15.10;;;;;;;;;;5054370;28;20040;-83
2022/03/01 06:23:22;;;;;;;23.02;15.07;;;;;;;;;;5024560;28;20065;-85
2022/03/01 06:25:48;;;;;;;22.95;15.32;;;;;;;;;;5062361;28;20121;-86
2022/03/01 06:28:14;;;;;;;23.58;14.60;;;;;;;;;;5068761;28;20089;-85
2022/03/01 06:30:40;;;;;;;24.45;15.77;;;;;;;;;;5051889;28;20033;-87
2022/03/01 06:33:06;;;;;;;22.70;15.73;;;;;;;;;;5038721;28;20036;-87
2022/03/01 06:35:32;;;;;;;23.45;14.88;;;;;;;;;;5053083;28;20037;-85
2022/03/01 06:37:58;;;;;;;22.15;13.93;;;;;;;;;;5039822;28;20047;-86
2022/03/01 06:40:25;;;;;;;21.85;14.10;;;;;;;;;;5057044;28;20072;-87
2022/03/01 06:42:51;;;;;;;25.58;15.48;;;;;;;;;;5075533;28;20051;-87
2022/03/01 06:45:18;;;;;;;24.25;14.82;;;;;;;;;;5057533;28;20036;-86
2022/03/01 06:47:44;;;;;;;22.95;14.77;;;;;;;;;;5040825;28;20048;-87
2022/03/01 06:50:10;;;;;;;25.42;15.77;;;;;;;;;;5057287;28;20040;-87
2022/03/01 06:52:37;;;;;;;21.58;14.57;;;;;;;;;;5039872;28;20044;-87
2022/03/01 06:55:06;;;;;;;28.70;15.88;;;;;;;;;;5039885;28;20070;-86
2022/03/01 06:57:33;;;;;;;23.23;15.35;;;;;;;;;;5038599;28;20375;-87
2022/03/01 06:59:59;;;;;;;26.05;16.35;;;;;;;;;;5056130;28;20585;-87
2022/03/01 07:02:26;;;;;;;22.63;15.13;;;;;;;;;;5042695;28;20422;-86
2022/03/01 07:04:54;;;;;;;24.33;15.23;;;;;;;;;;5059727;28;20444;-88
2022/03/01 07:07:21;;;;;;;23.35;15.38;;;;;;;;;;5038110;28;20045;-86
2022/03/01 07:09:47;;;;;;;23.45;15.07;;;;;;;;;;5052566;28;20044;-86
2022/03/01 07:12:13;;;;;;;24.48;15.98;;;;;;;;;;5079838;28;20409;-85
2022/03/01 07:14:39;;;;;;;25.58;15.98;;;;;;;;;;5062394;28;20191;-86
2022/03/01 07:17:05;;;;;;;26.90;16.65;;;;;;;;;;5076837;28;20036;-86
2022/03/01 07:19:31;;;;;;;24.35;15.38;;;;;;;;;;5071479;28;20043;-86
2022/03/01 07:21:57;;;;;;;26.77;16.75;;;;;;;;;;5042206;28;20147;-87
2022/03/01 07:24:23;;;;;;;24.48;15.80;;;;;;;;;;5042381;28;20112;-88
2022/03/01 07:26:49;;;;;;;23.85;15.35;;;;;;;;;;5042152;28;20119;-87
2022/03/01 07:29:15;;;;;;;25.77;15.52;;;;;;;;;;5039680;28;20126;-88
2022/03/01 07:31:42;;;;;;;25.20;16.38;;;;;;;;;;5040321;28;20101;-86
2022/03/01 07:34:08;;;;;;;24.90;16.30;;;;;;;;;;5040569;28;20093;-86
2022/03/01 07:36:34;;;;;;;23.70;16.15;;;;;;;;;;5057526;28;20048;-86
2022/03/01 07:39:00;;;;;;;24.02;16.10;;;;;;;;;;5041504;28;20044;-86
2022/03/01 07:41:26;;;;;;;21.33;15.85;;;;;;;;;;5042937;28;20048;-87
2022/03/01 07:43:52;;;;;;;23.05;15.75;;;;;;;;;;5042511;28;20416;-86
2022/03/01 07:46:19;;;;;;;22.02;15.70;;;;;;;;;;5043632;28;20044;-87
2022/03/01 07:48:45;;;;;;;23.67;15.10;;;;;;;;;;5041685;28;20046;-87
2022/03/01 07:51:12;;;;;;;23.60;15.57;;;;;;;;;;5044340;28;20021;-86
2022/03/01 07:53:38;;;;;;;22.77;14.88;;;;;;;;;;5065178;28;20120;-85
2022/03/01 07:56:05;;;;;;;21.35;15.23;;;;;;;;;;5081772;28;20036;-85
2022/03/01 07:58:31;;;;;;;24.38;16.13;;;;;;;;;;5064088;28;20055;-85
2022/03/01 08:00:57;;;;;;;27.35;15.68;;;;;;;;;;5066511;28;20092;-86
2022/03/01 08:03:23;;;;;;;22.67;14.32;;;;;;;;;;5047567;28;20525;-86
2022/03/01 08:05:49;;;;;;;19.77;14.13;;;;;;;;;;5036606;28;20041;-87
2022/03/01 08:08:15;;;;;;;24.10;15.88;;;;;;;;;;5044882;28;20491;-86
2022/03/01 08:10:41;;;;;;;21.73;14.80;;;;;;;;;;5051769;28;20032;-86
2022/03/01 08:13:07;;;;;;;21.55;15.45;;;;;;;;;;5033590;28;20040;-87
2022/03/01 08:15:34;;;;;;;23.83;15.00;;;;;;;;;;5058353;28;20032;-87
2022/03/01 08:18:00;;;;;;;22.45;14.60;;;;;;;;;;5058704;28;20052;-87
2022/03/01 08:20:26;;;;;;;20.90;14.98;;;;;;;;;;5059098;28;20044;-88
2022/03/01 08:22:52;;;;;;;23.13;15.65;;;;;;;;;;5058361;28;20044;-87
2022/03/01 08:25:19;;;;;;;20.95;14.80;;;;;;;;;;5041471;28;20043;-87
2022/03/01 08:27:46;;;;;;;22.85;15.68;;;;;;;;;;5057518;28;20559;-87
2022/03/01 08:30:12;;;;;;;22.48;15.60;;;;;;;;;;5056969;28;20037;-85
2022/03/01 08:32:39;;;;;;;20.05;14.75;;;;;;;;;;5063626;28;20025;-88
2022/03/01 08:35:05;;;;;;;21.95;14.98;;;;;;;;;;5053493;28;20049;-87
2022/03/01 08:37:31;;;;;;;29.23;19.65;;;;;;;;;;5068622;28;20024;-85
2022/03/01 08:39:57;;;;;;;35.03;22.23;;;;;;;;;;5064233;28;20025;-85
2022/03/01 08:42:23;;;;;;;24.42;17.52;;;;;;;;;;5063296;28;20105;-85
2022/03/01 08:44:52;;;;;;;37.50;27.25;;;;;;;;;;5074408;28;20037;-88
2022/03/01 08:47:18;;;;;;;26.13;17.20;;;;;;;;;;5029484;28;20059;-87
2022/03/01 08:49:44;;;;;;;20.48;14.60;;;;;;;;;;5050674;28;20128;-88
2022/03/01 08:52:10;;;;;;;19.95;12.70;;;;;;;;;;5040298;28;20488;-87
2022/03/01 08:54:36;;;;;;;20.45;13.98;;;;;;;;;;5056662;28;20084;-86
2022/03/01 08:57:02;;;;;;;17.05;13.25;;;;;;;;;;5039813;28;20045;-86
2022/03/01 08:59:28;;;;;;;22.45;13.88;;;;;;;;;;5058309;28;20036;-87
2022/03/01 09:01:54;;;;;;;18.42;14.50;;;;;;;;;;5056852;28;20218;-88
2022/03/01 09:04:23;;;;;;;19.55;13.70;;;;;;;;;;5059483;28;20117;-89
2022/03/01 09:06:49;;;;;;;16.95;12.77;;;;;;;;;;5042908;28;20044;-89
2022/03/01 09:09:15;;;;;;;18.83;11.88;;;;;;;;;;5033179;28;20047;-87
2022/03/01 09:11:41;;;;;;;16.92;11.73;;;;;;;;;;5034316;28;20041;-87
2022/03/01 09:14:08;;;;;;;16.40;11.93;;;;;;;;;;5042952;28;20417;-89
2022/03/01 09:16:58;;;;;;;21.80;15.57;;;;;;;;;;5069978;28;20532;-89
2022/03/01 09:19:37;;;;;;;18.90;13.73;;;;;;;;;;5038716;28;20047;-88
2022/03/01 09:22:24;;;;;;;19.90;12.88;;;;;;;;;;5037497;28;20072;-88
2022/03/01 09:24:51;;;;;;;15.63;12.60;;;;;;;;;;5030713;28;20077;-87
2022/03/01 09:27:20;;;;;;;17.80;12.48;;;;;;;;;;5073554;28;20032;-88
2022/03/01 09:29:55;;;;;;;17.83;12.40;;;;;;;;;;5052223;28;20049;-88
2022/03/01 09:32:31;;;;;;;16.48;11.65;;;;;;;;;;5040205;28;20079;-90
2022/03/01 09:35:03;;;;;;;16.95;12.60;;;;;;;;;;5057422;28;20040;-89
2022/03/01 09:37:38;;;;;;;16.55;12.90;;;;;;;;;;5038478;28;20494;-87
2022/03/01 09:40:12;;;;;;;17.63;13.18;;;;;;;;;;5040475;28;20537;-89
2022/03/01 09:42:47;;;;;;;17.25;12.88;;;;;;;;;;5040148;28;20096;-88
2022/03/01 09:45:28;;;;;;;16.20;12.50;;;;;;;;;;5041448;28;20109;-88
2022/03/01 09:47:55;;;;;;;16.58;12.48;;;;;;;;;;5041215;28;20044;-87
2022/03/01 09:50:27;;;;;;;16.17;12.80;;;;;;;;;;5040932;28;20123;-88
2022/03/01 09:52:54;;;;;;;16.58;12.70;;;;;;;;;;5040711;28;20051;-88
2022/03/01 09:55:23;;;;;;;17.67;12.85;;;;;;;;;;5041199;28;20506;-87
2022/03/01 09:57:52;;;;;;;17.88;12.57;;;;;;;;;;5058661;28;20571;-89
2022/03/01 10:00:22;;;;;;;20.75;14.00;;;;;;;;;;5077549;28;20051;-89
2022/03/01 10:02:56;;;;;;;17.20;13.20;;;;;;;;;;5059588;28;20037;-88
2022/03/01 10:05:31;;;;;;;17.58;13.82;;;;;;;;;;5062103;28;20312;-88
2022/03/01 10:08:05;;;;;;;18.13;12.95;;;;;;;;;;5077228;28;20040;-88
2022/03/01 10:10:36;;;;;;;17.08;13.30;;;;;;;;;;5057334;28;20044;-85
2022/03/01 10:13:09;;;;;;;16.90;13.48;;;;;;;;;;5057096;28;20050;-85
2022/03/01 10:15:38;;;;;;;16.90;13.52;;;;;;;;;;5057726;28;20126;-86
2022/03/01 10:18:12;;;;;;;18.40;12.75;;;;;;;;;;5074559;28;20134;-85
2022/03/01 10:20:40;;;;;;;17.48;12.82;;;;;;;;;;5059669;28;20044;-85
2022/03/01 10:23:07;;;;;;;17.65;12.85;;;;;;;;;;5073325;28;20040;-85
2022/03/01 10:25:35;;;;;;;17.95;13.25;;;;;;;;;;5057222;28;20147;-85
2022/03/01 10:28:03;;;;;;;16.80;12.82;;;;;;;;;;5058204;28;20104;-85
2022/03/01 10:30:34;;;;;;;17.20;13.52;;;;;;;;;;5074650;28;20092;-85
2022/03/01 10:33:07;;;;;;;16.67;13.02;;;;;;;;;;5057628;28;20051;-86
2022/03/01 10:35:33;;;;;;;17.38;14.27;;;;;;;;;;5074967;28;20039;-85
2022/03/01 10:38:01;;;;;;;19.08;13.73;;;;;;;;;;5059632;28;20069;-86
2022/03/01 10:40:27;;;;;;;17.70;13.63;;;;;;;;;;5078647;28;20170;-85
2022/03/01 10:43:05;;;;;;;15.68;13.30;;;;;;;;;;5061683;28;20046;-86
2022/03/01 10:45:34;;;;;;;18.33;12.80;;;;;;;;;;5078852;28;20490;-86
2022/03/01 10:48:01;;;;;;;19.23;13.68;;;;;;;;;;5079182;28;20440;-86
2022/03/01 10:50:27;;;;;;;14.93;13.07;;;;;;;;;;5079642;28;20070;-86
2022/03/01 10:52:53;;;;;;;15.07;13.13;;;;;;;;;;5078870;28;20569;-86
2022/03/01 10:55:27;;;;;;;15.40;13.52;;;;;;;;;;5062459;28;20044;-83
2022/03/01 10:57:52;;;;;;;;;;;;;;;;;;5086521;28;20044;-83
2022/03/01 11:00:18;;;;;;;16.70;13.18;;;;;;;;;;5085717;28;19923;-85
2022/03/01 11:02:45;;;;;;;15.98;12.88;;;;;;;;;;5084647;28;20036;-86
2022/03/01 11:05:10;;;;;;;16.50;12.75;;;;;;;;;;5083387;28;20063;-85
2022/03/01 11:07:40;;;;;;;16.08;13.40;;;;;;;;;;5082736;28;20071;-84
2022/03/01 11:10:06;;;;;;;15.40;13.43;;;;;;;;;;5089094;28;20069;-84
2022/03/01 11:12:33;;;;;;;15.95;13.40;;;;;;;;;;5086079;28;20036;-84
2022/03/01 11:15:05;;;;;;;15.45;13.73;;;;;;;;;;5100989;28;20046;-86
2022/03/01 11:17:48;;;;;;;16.05;13.10;;;;;;;;;;5083585;28;20051;-86
2022/03/01 11:20:23;;;;;;;16.48;13.25;;;;;;;;;;5067308;28;20044;-86
2022/03/01 11:22:51;;;;;;;16.10;13.10;;;;;;;;;;5057479;28;20475;-85
2022/03/01 11:25:27;;;;;;;16.40;13.80;;;;;;;;;;5052181;28;20129;-86
2022/03/01 11:28:00;;;;;;;15.85;14.23;;;;;;;;;;5075174;28;20038;-86
2022/03/01 11:30:33;;;;;;;14.27;12.55;;;;;;;;;;5084844;28;20036;-86
2022/03/01 11:32:59;;;;;;;16.90;13.20;;;;;;;;;;5085091;28;20048;-86
2022/03/01 11:35:27;;;;;;;14.65;13.15;;;;;;;;;;5085931;28;20051;-86
2022/03/01 11:38:08;;;;;;;15.45;13.30;;;;;;;;;;5068697;28;20051;-86
2022/03/01 11:41:02;;;;;;;18.42;14.82;;;;;;;;;;5084606;28;20052;-86
2022/03/01 11:43:27;;;;;;;18.17;15.98;;;;;;;;;;5084667;28;20399;-86
2022/03/01 11:45:55;;;;;;;18.35;14.10;;;;;;;;;;5102940;28;20028;-87
2022/03/01 11:48:22;;;;;;;17.15;14.77;;;;;;;;;;5087384;28;20047;-88
2022/03/01 11:50:51;;;;;;;15.80;13.68;;;;;;;;;;5085498;28;20036;-86
2022/03/01 11:53:18;;;;;;;17.05;14.00;;;;;;;;;;5086198;28;20040;-87
2022/03/01 11:55:46;;;;;;;19.70;16.20;;;;;;;;;;5085863;28;20082;-87
2022/03/01 11:58:13;;;;;;;16.90;13.70;;;;;;;;;;5069086;28;20044;-87
2022/03/01 12:00:40;;;;;;;16.02;13.77;;;;;;;;;;5085273;28;20055;-85
2022/03/01 12:03:07;;;;;;;17.27;14.18;;;;;;;;;;5068679;28;20071;-87
2022/03/01 12:05:36;;;;;;;15.18;13.20;;;;;;;;;;5084735;28;20040;-86
2022/03/01 12:08:05;;;;;;;17.35;12.95;;;;;;;;;;5066438;28;20040;-86
2022/03/01 12:10:31;;;;;;;18.20;13.90;;;;;;;;;;5066497;28;20074;-86
2022/03/01 12:12:57;;;;;;;16.50;13.07;;;;;;;;;;5067318;28;20047;-86
2022/03/01 12:15:27;;;;;;;15.43;13.07;;;;;;;;;;5067655;28;20059;-87
2022/03/01 12:17:54;;;;;;;19.50;14.32;;;;;;;;;;5068677;28;20048;-87
2022/03/01 12:20:21;;;;;;;18.10;15.25;;;;;;;;;;5103612;28;20036;-87
2022/03/01 12:22:58;;;;;;;20.27;14.15;;;;;;;;;;5068566;28;20040;-87
2022/03/01 12:25:24;;;;;;;16.85;14.00;;;;;;;;;;5085273;28;20040;-86
2022/03/01 12:27:51;;;;;;;15.95;12.82;;;;;;;;;;5067484;28;20051;-87
2022/03/01 12:30:21;;;;;;;15.13;13.20;;;;;;;;;;5084779;28;20142;-87
2022/03/01 12:32:51;;;;;;;17.75;14.75;;;;;;;;;;5068107;28;20524;-88
2022/03/01 12:35:20;;;;;;;16.50;14.20;;;;;;;;;;5067964;28;20044;-88
2022/03/01 12:37:46;;;;;;;17.75;13.52;;;;;;;;;;5085056;28;20044;-87
2022/03/01 12:40:12;;;;;;;22.52;17.52;;;;;;;;;;5084462;28;20121;-86
2022/03/01 12:42:38;;;;;;;17.13;13.68;;;;;;;;;;5101544;28;20036;-86
2022/03/01 12:45:05;;;;;;;18.77;14.57;;;;;;;;;;5083313;28;20036;-87
2022/03/01 12:47:31;;;;;;;21.38;15.63;;;;;;;;;;5067734;28;20040;-86
2022/03/01 12:49:57;;;;;;;18.23;14.30;;;;;;;;;;5085191;28;20051;-88
2022/03/01 12:52:23;;;;;;;18.20;14.77;;;;;;;;;;5068817;28;20043;-87
2022/03/01 12:54:50;;;;;;;17.02;14.63;;;;;;;;;;5085430;28;20048;-88
2022/03/01 12:57:16;;;;;;;19.17;14.15;;;;;;;;;;5118598;28;20024;-85
2022/03/01 12:59:44;;;;;;;18.33;13.60;;;;;;;;;;5082977;28;20044;-87
2022/03/01 13:02:10;;;;;;;17.23;14.93;;;;;;;;;;5068484;28;20507;-86
2022/03/01 13:04:37;;;;;;;17.90;13.40;;;;;;;;;;5080463;28;20036;-86
2022/03/01 13:07:04;;;;;;;16.70;14.20;;;;;;;;;;5065002;28;20040;-85
2022/03/01 13:09:30;;;;;;;17.52;14.05;;;;;;;;;;5081270;28;20036;-86
2022/03/01 13:11:56;;;;;;;17.30;13.98;;;;;;;;;;5081090;28;20048;-86
2022/03/01 13:14:24;;;;;;;19.23;13.60;;;;;;;;;;5065372;28;20062;-86
2022/03/01 13:16:51;;;;;;;20.92;14.90;;;;;;;;;;5082017;28;20474;-86
2022/03/01 13:19:28;;;;;;;17.55;14.68;;;;;;;;;;5081235;28;20322;-86
2022/03/01 13:21:55;;;;;;;18.70;14.77;;;;;;;;;;5080644;28;20040;-85
2022/03/01 13:24:26;;;;;;;23.10;19.40;;;;;;;;;;5073898;28;20049;-85
2022/03/01 13:26:53;;;;;;;18.40;15.18;;;;;;;;;;5057257;28;20040;-85
2022/03/01 13:29:25;;;;;;;21.25;17.52;;;;;;;;;;5074391;28;20040;-84
2022/03/01 13:32:00;;;;;;;18.65;14.77;;;;;;;;;;5044714;28;20102;-85
2022/03/01 13:34:26;;;;;;;16.60;14.13;;;;;;;;;;5045280;28;20062;-86
2022/03/01 13:36:53;;;;;;;20.13;14.60;;;;;;;;;;5045153;28;20094;-86
2022/03/01 13:39:20;;;;;;;16.65;14.73;;;;;;;;;;5044720;28;20048;-86
2022/03/01 13:41:56;;;;;;;17.58;14.38;;;;;;;;;;5044916;28;20405;-86
2022/03/01 13:44:22;;;;;;;17.88;14.55;;;;;;;;;;5044446;28;20040;-86
2022/03/01 13:47:14;;;;;;;18.05;13.77;;;;;;;;;;5044368;28;20036;-85
2022/03/01 13:50:01;;;;;;;18.55;14.25;;;;;;;;;;5046758;28;20076;-85
2022/03/01 13:52:31;;;;;;;19.27;13.30;;;;;;;;;;5061207;28;20037;-84
2022/03/01 13:55:00;;;;;;;19.52;14.40;;;;;;;;;;5078709;28;20024;-85
2022/03/01 13:57:37;;;;;;;17.60;13.82;;;;;;;;;;5055402;28;20101;-85
2022/03/01 14:00:10;;;;;;;17.17;13.13;;;;;;;;;;5063390;28;20040;-84
2022/03/01 14:02:37;;;;;;;15.85;13.23;;;;;;;;;;5063146;28;20041;-84
2022/03/01 14:05:05;;;;;;;20.60;14.35;;;;;;;;;;5058550;28;20036;-86
2022/03/01 14:07:37;;;;;;;18.92;14.38;;;;;;;;;;5046851;28;20047;-86
2022/03/01 14:10:04;;;;;;;17.88;13.63;;;;;;;;;;5046247;28;20051;-86
2022/03/01 14:12:49;;;;;;;17.45;13.68;;;;;;;;;;5062014;28;20040;-87
2022/03/01 14:15:15;;;;;;;17.70;13.13;;;;;;;;;;5081344;28;20036;-85
2022/03/01 14:17:42;;;;;;;20.90;14.43;;;;;;;;;;5062576;28;20394;-86
2022/03/01 14:20:08;;;;;;;18.85;14.20;;;;;;;;;;5062670;28;20051;-87
2022/03/01 14:22:37;;;;;;;18.10;14.15;;;;;;;;;;5080162;28;20033;-86
2022/03/01 14:25:06;;;;;;;18.88;14.23;;;;;;;;;;5046491;28;20530;-87
2022/03/01 14:27:39;;;;;;;19.38;13.55;;;;;;;;;;5045685;28;20107;-86
2022/03/01 14:30:05;;;;;;;17.73;13.82;;;;;;;;;;5045846;28;20040;-86
2022/03/01 14:32:31;;;;;;;17.33;13.25;;;;;;;;;;5045344;28;20048;-86
2022/03/01 14:34:58;;;;;;;19.10;14.15;;;;;;;;;;5045209;28;20074;-85